McCutcheon Field, North Carolina
Current Conditions -  °F | °C
As of 1:56 PM on Tuesday 21 Oct 2014 (Local Time) from KNCA Reporting Station
Clear Clear  
Wind Chill: 76°   Ceiling: Unl
Heat Index: 76°   Visibility: 10mi
Dew Point: 51°   Wind: 8mph
Humidity: 42%   Direction: 240°WSW
Pressure: 29.86"   Gusts: NA
Location:  34.72°N, 77.45°W
Report Text: KNCA 211756Z 24007KT 10SM CLR 24/11 A2986 RMK AO2 SLP113 T02440106 10244 20139 58020
Loading
Personal Weather Stations






























Interactive Weather Map
Tropical Storm Tracking
New forecast layout! Learn more

10-Day Weather Forecast

Advertisements
Track Severe Weather on mobile